< < Back
Terminal Aerodrome Forecast


Current Version              Previous Versions:   1  2  3  4  5  6  7  8  9  

Terminal Aerodrome Forecast

918
FTUS44 KOHX 250500
TAFCSV
TAF
KCSV 250520Z 2506/2606 19008KT P6SM VCTS BKN050CB OVC100
      TEMPO 2506/2508 3SM TSRA OVC025CB
     FM251400 27010KT P6SM VCSH SCT007 OVC015
     FM251600 31012G22KT P6SM BKN015
     FM260000 32010G20KT P6SM SKC=

Latest METAR

465
SAUS70 KWBC 250900 RRF
MTRCSV
METAR KCSV 250853Z AUTO 20006KT 5SM -RA BKN065 BKN080 OVC090 17/13 A2977
RMK AO2 RAB00 SLP063 P0000 60000 T01670128 56018


USA.gov is the U.S. government's official web portal to all federal, state and local government web resources and services.